sensor_id;sensor_type;location;lat;lon;timestamp;pressure;altitude;pressure_sealevel;temperature;humidity
72061;BME280;59925;52.136;5.420;2023-02-01T00:02:06;102133.41;;;3.43;85.03
72061;BME280;59925;52.136;5.420;2023-02-01T00:04:32;102120.16;;;3.43;84.60
72061;BME280;59925;52.136;5.420;2023-02-01T00:07:00;102127.53;;;3.48;84.86
72061;BME280;59925;52.136;5.420;2023-02-01T00:09:27;102126.50;;;3.49;84.72
72061;BME280;59925;52.136;5.420;2023-02-01T00:11:53;102121.06;;;3.57;84.64
72061;BME280;59925;52.136;5.420;2023-02-01T00:14:20;102129.28;;;3.62;85.09
72061;BME280;59925;52.136;5.420;2023-02-01T00:16:46;102132.00;;;3.69;84.78
72061;BME280;59925;52.136;5.420;2023-02-01T00:19:14;102136.47;;;3.68;84.77
72061;BME280;59925;52.136;5.420;2023-02-01T00:21:41;102124.63;;;3.71;84.60
72061;BME280;59925;52.136;5.420;2023-02-01T00:24:09;102123.63;;;3.72;85.00
72061;BME280;59925;52.136;5.420;2023-02-01T00:26:45;102114.09;;;3.78;84.91
72061;BME280;59925;52.136;5.420;2023-02-01T00:29:14;102113.75;;;3.88;84.69
72061;BME280;59925;52.136;5.420;2023-02-01T00:31:42;102116.84;;;3.91;84.75
72061;BME280;59925;52.136;5.420;2023-02-01T00:34:11;102124.81;;;3.91;84.36
72061;BME280;59925;52.136;5.420;2023-02-01T00:36:39;102116.66;;;3.93;84.76
72061;BME280;59925;52.136;5.420;2023-02-01T00:39:05;102117.47;;;3.93;84.57
72061;BME280;59925;52.136;5.420;2023-02-01T00:41:32;102117.53;;;4.00;84.48
72061;BME280;59925;52.136;5.420;2023-02-01T00:43:58;102122.66;;;4.02;84.38
72061;BME280;59925;52.136;5.420;2023-02-01T00:46:25;102126.78;;;4.11;84.56
72061;BME280;59925;52.136;5.420;2023-02-01T00:48:51;102129.09;;;4.21;83.90
72061;BME280;59925;52.136;5.420;2023-02-01T00:51:21;102123.16;;;4.19;83.80
72061;BME280;59925;52.136;5.420;2023-02-01T00:53:48;102122.78;;;4.22;83.83
72061;BME280;59925;52.136;5.420;2023-02-01T00:56:16;102119.13;;;4.23;83.56
72061;BME280;59925;52.136;5.420;2023-02-01T00:58:42;102122.19;;;4.26;84.09
72061;BME280;59925;52.136;5.420;2023-02-01T01:01:14;102119.72;;;4.25;83.97
72061;BME280;59925;52.136;5.420;2023-02-01T01:03:46;102124.22;;;4.24;83.80
72061;BME280;59925;52.136;5.420;2023-02-01T01:06:15;102120.16;;;4.28;84.11
72061;BME280;59925;52.136;5.420;2023-02-01T01:08:42;102106.72;;;4.37;84.07
72061;BME280;59925;52.136;5.420;2023-02-01T01:11:12;102107.56;;;4.44;83.65
72061;BME280;59925;52.136;5.420;2023-02-01T01:13:39;102107.22;;;4.54;83.66
72061;BME280;59925;52.136;5.420;2023-02-01T01:16:07;102099.47;;;4.59;83.40
72061;BME280;59925;52.136;5.420;2023-02-01T01:18:35;102094.94;;;4.53;83.34
72061;BME280;59925;52.136;5.420;2023-02-01T01:21:03;102100.88;;;4.55;83.30
72061;BME280;59925;52.136;5.420;2023-02-01T01:23:30;102104.16;;;4.57;82.99
72061;BME280;59925;52.136;5.420;2023-02-01T01:25:56;102108.06;;;4.61;82.54
72061;BME280;59925;52.136;5.420;2023-02-01T01:28:22;102097.25;;;4.69;82.43
72061;BME280;59925;52.136;5.420;2023-02-01T01:30:49;102096.66;;;4.74;81.78
72061;BME280;59925;52.136;5.420;2023-02-01T01:33:16;102099.13;;;4.69;81.66
72061;BME280;59925;52.136;5.420;2023-02-01T01:35:42;102091.94;;;4.69;81.82
72061;BME280;59925;52.136;5.420;2023-02-01T01:38:10;102088.50;;;4.69;81.54
72061;BME280;59925;52.136;5.420;2023-02-01T01:40:38;102095.25;;;4.78;81.46
72061;BME280;59925;52.136;5.420;2023-02-01T01:43:13;102092.22;;;4.81;80.97
72061;BME280;59925;52.136;5.420;2023-02-01T01:45:40;102087.50;;;4.83;80.80
72061;BME280;59925;52.136;5.420;2023-02-01T01:48:13;102086.50;;;4.91;80.50
72061;BME280;59925;52.136;5.420;2023-02-01T01:50:51;102102.66;;;4.89;80.72
72061;BME280;59925;52.136;5.420;2023-02-01T01:53:24;102088.56;;;4.96;80.83
72061;BME280;59925;52.136;5.420;2023-02-01T01:55:53;102088.59;;;5.09;79.90
72061;BME280;59925;52.136;5.420;2023-02-01T01:58:24;102076.72;;;5.05;79.94
72061;BME280;59925;52.136;5.420;2023-02-01T02:00:52;102072.03;;;5.07;80.18
72061;BME280;59925;52.136;5.420;2023-02-01T02:03:35;102071.41;;;5.12;80.03
72061;BME280;59925;52.136;5.420;2023-02-01T02:06:05;102071.81;;;5.15;79.98
72061;BME280;59925;52.136;5.420;2023-02-01T02:08:36;102068.97;;;5.17;80.14
72061;BME280;59925;52.136;5.420;2023-02-01T02:11:03;102059.16;;;5.11;79.97
72061;BME280;59925;52.136;5.420;2023-02-01T02:13:41;102060.38;;;5.08;80.17
72061;BME280;59925;52.136;5.420;2023-02-01T02:33:23;102039.72;;;5.44;80.02
72061;BME280;59925;52.136;5.420;2023-02-01T02:36:04;102047.28;;;5.47;79.94
72061;BME280;59925;52.136;5.420;2023-02-01T02:38:49;102042.19;;;5.52;80.06
72061;BME280;59925;52.136;5.420;2023-02-01T02:41:25;102037.88;;;5.58;79.52
72061;BME280;59925;52.136;5.420;2023-02-01T02:47:15;102036.88;;;5.59;79.77
72061;BME280;59925;52.136;5.420;2023-02-01T02:50:03;102031.72;;;5.57;79.61
72061;BME280;59925;52.136;5.420;2023-02-01T02:53:05;102025.59;;;5.57;80.02
72061;BME280;59925;52.136;5.420;2023-02-01T02:55:53;102029.28;;;5.62;79.55
72061;BME280;59925;52.136;5.420;2023-02-01T02:58:38;102019.66;;;5.61;79.36
72061;BME280;59925;52.136;5.420;2023-02-01T03:01:23;102004.09;;;5.58;79.40
72061;BME280;59925;52.136;5.420;2023-02-01T03:04:08;102001.03;;;5.61;79.92
72061;BME280;59925;52.136;5.420;2023-02-01T03:06:37;101998.38;;;5.61;79.18
72061;BME280;59925;52.136;5.420;2023-02-01T03:09:08;102000.44;;;5.59;79.53
72061;BME280;59925;52.136;5.420;2023-02-01T03:11:40;102007.63;;;5.52;79.87
72061;BME280;59925;52.136;5.420;2023-02-01T03:14:32;102008.63;;;5.51;79.89
72061;BME280;59925;52.136;5.420;2023-02-01T03:17:08;102007.63;;;5.45;79.80
72061;BME280;59925;52.136;5.420;2023-02-01T03:19:43;102014.34;;;5.48;79.64
72061;BME280;59925;52.136;5.420;2023-02-01T03:22:20;102003.09;;;5.46;79.44
72061;BME280;59925;52.136;5.420;2023-02-01T03:24:57;102002.50;;;5.44;79.09
72061;BME280;59925;52.136;5.420;2023-02-01T03:27:32;102000.84;;;5.43;79.31
72061;BME280;59925;52.136;5.420;2023-02-01T03:30:06;101999.81;;;5.44;79.24
72061;BME280;59925;52.136;5.420;2023-02-01T03:32:35;101985.94;;;5.35;78.86
72061;BME280;59925;52.136;5.420;2023-02-01T03:38:30;102004.75;;;5.20;79.37
72061;BME280;59925;52.136;5.420;2023-02-01T03:41:23;102010.47;;;5.24;79.66
72061;BME280;59925;52.136;5.420;2023-02-01T03:46:28;102009.88;;;5.28;79.54
72061;BME280;59925;52.136;5.420;2023-02-01T03:49:05;101996.38;;;5.23;79.35
72061;BME280;59925;52.136;5.420;2023-02-01T03:51:32;102021.31;;;5.22;79.48
72061;BME280;59925;52.136;5.420;2023-02-01T03:54:01;102008.44;;;5.19;79.79
72061;BME280;59925;52.136;5.420;2023-02-01T03:56:29;102017.03;;;5.21;79.60
72061;BME280;59925;52.136;5.420;2023-02-01T03:58:57;102008.88;;;5.22;79.63
72061;BME280;59925;52.136;5.420;2023-02-01T04:01:29;101997.38;;;5.22;79.94
72061;BME280;59925;52.136;5.420;2023-02-01T04:03:57;102014.38;;;5.28;79.68
72061;BME280;59925;52.136;5.420;2023-02-01T04:06:24;101997.16;;;5.37;79.60
72061;BME280;59925;52.136;5.420;2023-02-01T04:08:51;102010.91;;;5.41;79.55
72061;BME280;59925;52.136;5.420;2023-02-01T04:11:17;102003.09;;;5.39;79.44
72061;BME280;59925;52.136;5.420;2023-02-01T04:13:44;102006.78;;;5.45;79.41
72061;BME280;59925;52.136;5.420;2023-02-01T04:16:10;102000.66;;;5.44;79.36
72061;BME280;59925;52.136;5.420;2023-02-01T04:18:37;102012.09;;;5.45;79.05
72061;BME280;59925;52.136;5.420;2023-02-01T04:21:04;102012.94;;;5.59;79.04
72061;BME280;59925;52.136;5.420;2023-02-01T04:23:30;102013.53;;;5.61;78.63
72061;BME280;59925;52.136;5.420;2023-02-01T04:26:01;102015.38;;;5.60;78.77
72061;BME280;59925;52.136;5.420;2023-02-01T04:28:28;102022.09;;;5.63;78.61
72061;BME280;59925;52.136;5.420;2023-02-01T04:30:55;102029.69;;;5.66;78.28
72061;BME280;59925;52.136;5.420;2023-02-01T04:33:22;102029.91;;;5.71;78.41
72061;BME280;59925;52.136;5.420;2023-02-01T04:35:49;102024.16;;;5.74;78.33
72061;BME280;59925;52.136;5.420;2023-02-01T04:38:15;102012.69;;;5.74;78.08
72061;BME280;59925;52.136;5.420;2023-02-01T04:40:42;102013.31;;;5.76;78.05
72061;BME280;59925;52.136;5.420;2023-02-01T04:43:09;102005.75;;;5.66;78.21
72061;BME280;59925;52.136;5.420;2023-02-01T04:45:35;101990.81;;;5.58;78.14
72061;BME280;59925;52.136;5.420;2023-02-01T04:48:02;102014.56;;;5.53;78.31
72061;BME280;59925;52.136;5.420;2023-02-01T04:50:28;102003.09;;;5.59;78.66
72061;BME280;59925;52.136;5.420;2023-02-01T04:52:55;102010.28;;;5.52;78.34
72061;BME280;59925;52.136;5.420;2023-02-01T04:55:21;102000.66;;;5.44;78.73
72061;BME280;59925;52.136;5.420;2023-02-01T04:57:48;101995.34;;;5.44;78.84
72061;BME280;59925;52.136;5.420;2023-02-01T05:00:15;101990.03;;;5.37;78.94
72061;BME280;59925;52.136;5.420;2023-02-01T05:02:41;101993.72;;;5.36;79.23
72061;BME280;59925;52.136;5.420;2023-02-01T05:05:08;102000.25;;;5.41;79.56
72061;BME280;59925;52.136;5.420;2023-02-01T05:07:34;101995.13;;;5.39;79.09
72061;BME280;59925;52.136;5.420;2023-02-01T05:10:01;101999.25;;;5.42;79.57
72061;BME280;59925;52.136;5.420;2023-02-01T05:12:27;102006.38;;;5.41;79.59
72061;BME280;59925;52.136;5.420;2023-02-01T05:15:12;102002.31;;;5.39;79.57
72061;BME280;59925;52.136;5.420;2023-02-01T05:17:38;101986.34;;;5.32;79.43
72061;BME280;59925;52.136;5.420;2023-02-01T05:20:07;101998.22;;;5.22;79.31
72061;BME280;59925;52.136;5.420;2023-02-01T05:22:34;101993.72;;;5.23;79.88
72061;BME280;59925;52.136;5.420;2023-02-01T05:25:01;101994.94;;;5.27;79.92
72061;BME280;59925;52.136;5.420;2023-02-01T05:27:29;101993.31;;;5.33;80.17
72061;BME280;59925;52.136;5.420;2023-02-01T05:29:56;102010.06;;;5.33;79.71
72061;BME280;59925;52.136;5.420;2023-02-01T05:32:23;102013.34;;;5.42;79.74
72061;BME280;59925;52.136;5.420;2023-02-01T05:34:49;102008.03;;;5.42;80.02
72061;BME280;59925;52.136;5.420;2023-02-01T05:37:16;102003.09;;;5.46;80.11
72061;BME280;59925;52.136;5.420;2023-02-01T05:39:42;101999.81;;;5.50;79.31
72061;BME280;59925;52.136;5.420;2023-02-01T05:42:08;102015.78;;;5.50;79.48
72061;BME280;59925;52.136;5.420;2023-02-01T05:44:35;102004.75;;;5.47;79.56
72061;BME280;59925;52.136;5.420;2023-02-01T05:47:01;102010.69;;;5.49;79.75
72061;BME280;59925;52.136;5.420;2023-02-01T05:49:28;102011.47;;;5.49;79.69
72061;BME280;59925;52.136;5.420;2023-02-01T05:51:54;102018.88;;;5.54;79.42
72061;BME280;59925;52.136;5.420;2023-02-01T05:54:20;102004.53;;;5.55;79.87
72061;BME280;59925;52.136;5.420;2023-02-01T05:56:47;102017.00;;;5.55;79.80
72061;BME280;59925;52.136;5.420;2023-02-01T05:59:13;102018.03;;;5.53;79.67
72061;BME280;59925;52.136;5.420;2023-02-01T06:01:40;102019.25;;;5.58;79.45
72061;BME280;59925;52.136;5.420;2023-02-01T06:04:06;102023.16;;;5.55;79.70
72061;BME280;59925;52.136;5.420;2023-02-01T06:06:33;102013.72;;;5.52;79.72
72061;BME280;59925;52.136;5.420;2023-02-01T06:09:00;102023.97;;;5.56;80.11
72061;BME280;59925;52.136;5.420;2023-02-01T06:11:27;102027.44;;;5.56;79.97
72061;BME280;59925;52.136;5.420;2023-02-01T06:13:59;102013.34;;;5.56;79.96
72061;BME280;59925;52.136;5.420;2023-02-01T06:16:27;102003.50;;;5.56;80.13
72061;BME280;59925;52.136;5.420;2023-02-01T06:18:53;102014.97;;;5.57;80.30
72061;BME280;59925;52.136;5.420;2023-02-01T06:21:20;102014.75;;;5.58;80.05
72061;BME280;59925;52.136;5.420;2023-02-01T06:23:51;102017.41;;;5.58;80.08
72061;BME280;59925;52.136;5.420;2023-02-01T06:26:18;102015.38;;;5.60;80.13
72061;BME280;59925;52.136;5.420;2023-02-01T06:28:45;102019.47;;;5.56;80.42
72061;BME280;59925;52.136;5.420;2023-02-01T06:31:12;102023.16;;;5.55;80.14
72061;BME280;59925;52.136;5.420;2023-02-01T06:33:38;102020.69;;;5.53;80.12
72061;BME280;59925;52.136;5.420;2023-02-01T06:36:06;102036.47;;;5.48;80.24
72061;BME280;59925;52.136;5.420;2023-02-01T06:38:33;102027.25;;;5.37;80.74
72061;BME280;59925;52.136;5.420;2023-02-01T06:41:03;102036.03;;;5.31;80.82
72061;BME280;59925;52.136;5.420;2023-02-01T06:43:30;102022.56;;;5.33;81.06
72061;BME280;59925;52.136;5.420;2023-02-01T06:46:00;102043.00;;;5.32;80.96
72061;BME280;59925;52.136;5.420;2023-02-01T06:48:27;102038.31;;;5.34;80.91
72061;BME280;59925;52.136;5.420;2023-02-01T06:50:54;102048.75;;;5.29;81.13
72061;BME280;59925;52.136;5.420;2023-02-01T06:53:20;102042.38;;;5.30;81.09
72061;BME280;59925;52.136;5.420;2023-02-01T06:55:54;102051.81;;;5.26;80.88
72061;BME280;59925;52.136;5.420;2023-02-01T06:58:21;102032.97;;;5.21;81.26
72061;BME280;59925;52.136;5.420;2023-02-01T07:00:48;102045.66;;;5.19;81.00
72061;BME280;59925;52.136;5.420;2023-02-01T07:03:14;102036.88;;;5.18;81.20
72061;BME280;59925;52.136;5.420;2023-02-01T07:05:41;102038.91;;;5.23;81.28
72061;BME280;59925;52.136;5.420;2023-02-01T07:08:07;102036.66;;;5.20;81.61
72061;BME280;59925;52.136;5.420;2023-02-01T07:10:34;102028.69;;;5.20;81.65
72061;BME280;59925;52.136;5.420;2023-02-01T07:13:01;102030.31;;;5.21;81.89
72061;BME280;59925;52.136;5.420;2023-02-01T07:15:27;102023.97;;;5.29;81.78
72061;BME280;59925;52.136;5.420;2023-02-01T07:17:54;102021.53;;;5.34;81.36
72061;BME280;59925;52.136;5.420;2023-02-01T07:20:21;102029.69;;;5.32;81.31
72061;BME280;59925;52.136;5.420;2023-02-01T07:22:48;102023.19;;;5.28;81.85
72061;BME280;59925;52.136;5.420;2023-02-01T07:25:15;102030.31;;;5.28;81.68
72061;BME280;59925;52.136;5.420;2023-02-01T07:27:41;102047.09;;;5.28;81.49
72061;BME280;59925;52.136;5.420;2023-02-01T07:30:08;102023.97;;;5.29;81.87
72061;BME280;59925;52.136;5.420;2023-02-01T07:32:36;102030.13;;;5.29;81.68
72061;BME280;59925;52.136;5.420;2023-02-01T07:35:03;102031.75;;;5.30;81.57
72061;BME280;59925;52.136;5.420;2023-02-01T07:37:30;102037.06;;;5.30;81.38
72061;BME280;59925;52.136;5.420;2023-02-01T07:39:56;102021.72;;;5.26;81.46
72061;BME280;59925;52.136;5.420;2023-02-01T07:42:23;102027.66;;;5.28;81.54
72061;BME280;59925;52.136;5.420;2023-02-01T07:44:49;102024.38;;;5.26;81.46
72061;BME280;59925;52.136;5.420;2023-02-01T07:47:16;102037.91;;;5.24;81.69
72061;BME280;59925;52.136;5.420;2023-02-01T07:49:42;102029.28;;;5.22;81.58
72061;BME280;59925;52.136;5.420;2023-02-01T07:52:08;102028.69;;;5.20;81.71
72061;BME280;59925;52.136;5.420;2023-02-01T07:54:37;102016.41;;;5.26;81.79
72061;BME280;59925;52.136;5.420;2023-02-01T07:57:03;102034.22;;;5.32;81.40
72061;BME280;59925;52.136;5.420;2023-02-01T07:59:30;102051.59;;;5.34;81.20
72061;BME280;59925;52.136;5.420;2023-02-01T08:01:56;102032.38;;;5.32;81.27
72061;BME280;59925;52.136;5.420;2023-02-01T08:04:23;102041.34;;;5.31;81.32
72061;BME280;59925;52.136;5.420;2023-02-01T08:06:49;102042.81;;;5.34;81.56
72061;BME280;59925;52.136;5.420;2023-02-01T08:09:15;102050.19;;;5.39;81.53
72061;BME280;59925;52.136;5.420;2023-02-01T08:11:42;102058.78;;;5.41;81.45
72061;BME280;59925;52.136;5.420;2023-02-01T08:14:08;102058.78;;;5.41;80.90
72061;BME280;59925;52.136;5.420;2023-02-01T08:16:35;102044.25;;;5.36;81.37
72061;BME280;59925;52.136;5.420;2023-02-01T08:19:03;102053.63;;;5.39;81.45
72061;BME280;59925;52.136;5.420;2023-02-01T08:21:30;102040.56;;;5.37;81.29
72061;BME280;59925;52.136;5.420;2023-02-01T08:24:05;102042.38;;;5.44;81.16
72061;BME280;59925;52.136;5.420;2023-02-01T08:26:32;102041.78;;;5.55;81.52
72061;BME280;59925;52.136;5.420;2023-02-01T08:29:00;102034.59;;;5.62;80.97
72061;BME280;59925;52.136;5.420;2023-02-01T08:31:28;102025.19;;;5.66;80.87
72061;BME280;59925;52.136;5.420;2023-02-01T08:34:00;102023.53;;;5.72;81.01
72061;BME280;59925;52.136;5.420;2023-02-01T08:36:28;102027.63;;;5.81;80.57
72061;BME280;59925;52.136;5.420;2023-02-01T08:38:55;102028.63;;;5.80;80.24
72061;BME280;59925;52.136;5.420;2023-02-01T08:41:24;102029.25;;;5.76;80.16
72061;BME280;59925;52.136;5.420;2023-02-01T08:43:51;102027.63;;;5.75;80.47
72061;BME280;59925;52.136;5.420;2023-02-01T08:46:18;102026.81;;;5.74;80.83
72061;BME280;59925;52.136;5.420;2023-02-01T08:48:46;102023.94;;;5.76;80.45
72061;BME280;59925;52.136;5.420;2023-02-01T08:51:15;102033.16;;;5.80;80.53
72061;BME280;59925;52.136;5.420;2023-02-01T08:53:41;102020.44;;;5.95;80.16
72061;BME280;59925;52.136;5.420;2023-02-01T08:56:11;102031.03;;;6.09;79.89
72061;BME280;59925;52.136;5.420;2023-02-01T08:58:38;102030.25;;;6.08;79.70
72061;BME280;59925;52.136;5.420;2023-02-01T09:01:10;102024.31;;;6.06;79.61
72061;BME280;59925;52.136;5.420;2023-02-01T09:03:36;102031.03;;;6.09;79.71
72061;BME280;59925;52.136;5.420;2023-02-01T09:06:04;102007.28;;;6.14;79.40
72061;BME280;59925;52.136;5.420;2023-02-01T09:08:32;102018.97;;;6.13;79.90
72061;BME280;59925;52.136;5.420;2023-02-01T09:11:00;102018.97;;;6.13;79.96
72061;BME280;59925;52.136;5.420;2023-02-01T09:13:28;102008.66;;;6.30;79.70
72061;BME280;59925;52.136;5.420;2023-02-01T09:15:55;102014.69;;;6.57;79.44
72061;BME280;59925;52.136;5.420;2023-02-01T09:18:21;102014.13;;;6.81;78.53
72061;BME280;59925;52.136;5.420;2023-02-01T09:20:48;102012.28;;;6.81;77.99
72061;BME280;59925;52.136;5.420;2023-02-01T09:23:14;102016.91;;;6.93;78.34
72061;BME280;59925;52.136;5.420;2023-02-01T09:25:40;102024.25;;;6.97;77.75
72061;BME280;59925;52.136;5.420;2023-02-01T09:28:07;102009.53;;;6.95;77.37
72061;BME280;59925;52.136;5.420;2023-02-01T09:30:36;102013.78;;;7.02;77.40
72061;BME280;59925;52.136;5.420;2023-02-01T09:33:03;102015.47;;;6.97;76.99
72061;BME280;59925;52.136;5.420;2023-02-01T09:35:30;102004.84;;;6.90;76.74
72061;BME280;59925;52.136;5.420;2023-02-01T09:37:56;102022.50;;;6.84;76.70
72061;BME280;59925;52.136;5.420;2023-02-01T09:40:23;102027.84;;;6.84;77.07
72061;BME280;59925;52.136;5.420;2023-02-01T09:43:00;102021.06;;;6.82;77.16
72061;BME280;59925;52.136;5.420;2023-02-01T09:45:45;102007.97;;;6.80;76.94
72061;BME280;59925;52.136;5.420;2023-02-01T09:48:24;102019.66;;;6.79;77.20
72061;BME280;59925;52.136;5.420;2023-02-01T09:50:57;102014.13;;;6.81;76.58
72061;BME280;59925;52.136;5.420;2023-02-01T09:53:34;102007.16;;;6.80;76.67
72061;BME280;59925;52.136;5.420;2023-02-01T09:56:06;102021.72;;;6.77;76.95
72061;BME280;59925;52.136;5.420;2023-02-01T09:58:39;102008.84;;;6.74;77.06
72061;BME280;59925;52.136;5.420;2023-02-01T10:01:19;102017.03;;;6.72;77.03
72061;BME280;59925;52.136;5.420;2023-02-01T10:03:46;102015.63;;;6.70;77.58
72061;BME280;59925;52.136;5.420;2023-02-01T10:14:57;102000.06;;;6.67;77.67
72061;BME280;59925;52.136;5.420;2023-02-01T10:26:21;102006.97;;;6.36;80.82
72061;BME280;59925;52.136;5.420;2023-02-01T10:28:58;102021.78;;;6.25;82.13
72061;BME280;59925;52.136;5.420;2023-02-01T10:31:30;102016.69;;;6.17;82.64
72061;BME280;59925;52.136;5.420;2023-02-01T10:34:10;102017.94;;;6.14;83.85
72061;BME280;59925;52.136;5.420;2023-02-01T10:36:49;102003.81;;;6.13;84.06
72061;BME280;59925;52.136;5.420;2023-02-01T10:39:16;102007.28;;;6.14;84.06
72061;BME280;59925;52.136;5.420;2023-02-01T10:41:43;102009.72;;;6.16;83.93
72061;BME280;59925;52.136;5.420;2023-02-01T10:44:25;102014.63;;;6.19;83.69
72061;BME280;59925;52.136;5.420;2023-02-01T10:46:52;101999.25;;;6.21;83.79
72061;BME280;59925;52.136;5.420;2023-02-01T10:49:34;101997.22;;;6.23;83.92
72061;BME280;59925;52.136;5.420;2023-02-01T10:52:20;101999.84;;;6.29;83.20
72061;BME280;59925;52.136;5.420;2023-02-01T10:54:49;102002.09;;;6.33;82.26
72061;BME280;59925;52.136;5.420;2023-02-01T10:57:24;101989.56;;;6.40;81.36
72061;BME280;59925;52.136;5.420;2023-02-01T10:59:52;101971.69;;;6.47;81.80
72061;BME280;59925;52.136;5.420;2023-02-01T11:04:49;101992.50;;;6.64;80.55
72061;BME280;59925;52.136;5.420;2023-02-01T11:07:25;101980.75;;;6.71;80.55
72061;BME280;59925;52.136;5.420;2023-02-01T11:09:54;101981.59;;;6.72;80.26
72061;BME280;59925;52.136;5.420;2023-02-01T11:12:41;101959.44;;;6.71;80.17
72061;BME280;59925;52.136;5.420;2023-02-01T11:15:18;101974.63;;;6.71;79.94
72061;BME280;59925;52.136;5.420;2023-02-01T11:17:47;101975.81;;;6.75;80.16
72061;BME280;59925;52.136;5.420;2023-02-01T11:20:34;101969.28;;;6.71;80.48
72061;BME280;59925;52.136;5.420;2023-02-01T11:23:04;101978.97;;;6.65;80.63
72061;BME280;59925;52.136;5.420;2023-02-01T11:25:32;101961.72;;;6.68;80.40
72061;BME280;59925;52.136;5.420;2023-02-01T11:28:01;101972.56;;;6.73;79.71
72061;BME280;59925;52.136;5.420;2023-02-01T11:30:38;101973.31;;;6.80;80.25
72061;BME280;59925;52.136;5.420;2023-02-01T11:33:10;101977.19;;;6.84;79.92
72061;BME280;59925;52.136;5.420;2023-02-01T11:35:39;101975.56;;;6.83;79.19
72061;BME280;59925;52.136;5.420;2023-02-01T11:38:21;101978.38;;;6.88;79.55
72061;BME280;59925;52.136;5.420;2023-02-01T11:40:48;101978.34;;;6.95;79.08
72061;BME280;59925;52.136;5.420;2023-02-01T11:43:26;101976.06;;;6.99;78.51
72061;BME280;59925;52.136;5.420;2023-02-01T11:45:59;101963.50;;;7.06;78.86
72061;BME280;59925;52.136;5.420;2023-02-01T11:48:28;101962.94;;;7.23;78.70
72061;BME280;59925;52.136;5.420;2023-02-01T11:56:18;101958.59;;;7.28;77.60
72061;BME280;59925;52.136;5.420;2023-02-01T12:07:50;101943.78;;;7.51;76.71
72061;BME280;59925;52.136;5.420;2023-02-01T12:10:28;101958.56;;;7.54;76.93
72061;BME280;59925;52.136;5.420;2023-02-01T12:15:56;101966.34;;;7.55;76.18
72061;BME280;59925;52.136;5.420;2023-02-01T12:18:46;101945.28;;;7.65;76.06
72061;BME280;59925;52.136;5.420;2023-02-01T12:26:46;101950.09;;;7.57;76.12
72061;BME280;59925;52.136;5.420;2023-02-01T12:29:53;101931.03;;;7.53;75.70
72061;BME280;59925;52.136;5.420;2023-02-01T12:32:54;101951.78;;;7.51;75.63
72061;BME280;59925;52.136;5.420;2023-02-01T12:35:49;101939.72;;;7.48;75.76
72061;BME280;59925;52.136;5.420;2023-02-01T12:38:44;101947.94;;;7.47;75.64
72061;BME280;59925;52.136;5.420;2023-02-01T12:41:41;101951.66;;;7.46;76.23
72061;BME280;59925;52.136;5.420;2023-02-01T12:44:28;101947.56;;;7.43;76.03
72061;BME280;59925;52.136;5.420;2023-02-01T12:47:01;101960.28;;;7.41;76.33
72061;BME280;59925;52.136;5.420;2023-02-01T12:49:44;101954.38;;;7.39;76.16
72061;BME280;59925;52.136;5.420;2023-02-01T12:52:18;101941.47;;;7.36;76.20
72061;BME280;59925;52.136;5.420;2023-02-01T12:55:09;101950.88;;;7.39;76.47
72061;BME280;59925;52.136;5.420;2023-02-01T12:57:44;101962.81;;;7.36;76.57
72061;BME280;59925;52.136;5.420;2023-02-01T13:05:59;101944.22;;;7.48;76.67
72061;BME280;59925;52.136;5.420;2023-02-01T13:08:52;101948.31;;;7.50;76.66
72061;BME280;59925;52.136;5.420;2023-02-01T13:11:36;101945.28;;;7.47;76.23
72061;BME280;59925;52.136;5.420;2023-02-01T13:14:24;101959.88;;;7.44;75.95
72061;BME280;59925;52.136;5.420;2023-02-01T13:16:57;101949.63;;;7.41;76.30
72061;BME280;59925;52.136;5.420;2023-02-01T13:22:42;101954.22;;;7.34;76.62
72061;BME280;59925;52.136;5.420;2023-02-01T13:27:37;101949.31;;;7.31;76.94
72061;BME280;59925;52.136;5.420;2023-02-01T13:30:12;101958.34;;;7.30;76.56
72061;BME280;59925;52.136;5.420;2023-02-01T13:41:27;101968.38;;;7.34;76.86
72061;BME280;59925;52.136;5.420;2023-02-01T13:43:58;101962.81;;;7.36;76.93
72061;BME280;59925;52.136;5.420;2023-02-01T13:46:26;101958.69;;;7.40;76.65
72061;BME280;59925;52.136;5.420;2023-02-01T13:49:02;101948.38;;;7.44;76.69
72061;BME280;59925;52.136;5.420;2023-02-01T13:51:46;101952.47;;;7.46;76.86
72061;BME280;59925;52.136;5.420;2023-02-01T13:54:25;101956.75;;;7.47;76.67
72061;BME280;59925;52.136;5.420;2023-02-01T13:56:52;101953.44;;;7.52;76.12
72061;BME280;59925;52.136;5.420;2023-02-01T14:05:10;101954.19;;;7.59;75.99
72061;BME280;59925;52.136;5.420;2023-02-01T14:10:56;101950.03;;;7.63;75.56
72061;BME280;59925;52.136;5.420;2023-02-01T14:21:28;101971.44;;;7.57;76.76
72061;BME280;59925;52.136;5.420;2023-02-01T14:24:20;101979.91;;;7.54;76.73
72061;BME280;59925;52.136;5.420;2023-02-01T14:26:51;101965.97;;;7.51;76.71
72061;BME280;59925;52.136;5.420;2023-02-01T14:29:27;101961.44;;;7.52;76.85
72061;BME280;59925;52.136;5.420;2023-02-01T14:34:52;101951.19;;;7.49;77.16
72061;BME280;59925;52.136;5.420;2023-02-01T14:40:00;101950.63;;;7.47;77.62
72061;BME280;59925;52.136;5.420;2023-02-01T14:42:50;101964.16;;;7.45;77.54
72061;BME280;59925;52.136;5.420;2023-02-01T14:58:39;101956.47;;;7.37;78.95
72061;BME280;59925;52.136;5.420;2023-02-01T15:01:23;101955.13;;;7.28;79.29
72061;BME280;59925;52.136;5.420;2023-02-01T15:03:58;101960.88;;;7.25;79.98
72061;BME280;59925;52.136;5.420;2023-02-01T15:14:29;101969.50;;;7.27;79.80
72061;BME280;59925;52.136;5.420;2023-02-01T15:16:56;101968.81;;;7.31;79.63
72061;BME280;59925;52.136;5.420;2023-02-01T15:19:24;101973.56;;;7.29;79.89
72061;BME280;59925;52.136;5.420;2023-02-01T15:21:54;101982.16;;;7.31;79.75
72061;BME280;59925;52.136;5.420;2023-02-01T15:24:28;101974.34;;;7.30;79.85
72061;BME280;59925;52.136;5.420;2023-02-01T15:26:55;101984.59;;;7.33;79.57
72061;BME280;59925;52.136;5.420;2023-02-01T15:29:24;101995.28;;;7.33;79.78
72061;BME280;59925;52.136;5.420;2023-02-01T15:31:54;102002.84;;;7.36;79.60
72061;BME280;59925;52.136;5.420;2023-02-01T15:34:21;102005.88;;;7.40;79.30